Time;durP1;ratioP1;P1;durP2;ratioP2;P2;SDS_P1;SDS_P2;PMS_P1;PMS_P2;Temp;Humidity;BMP_temperature;BMP_pressure;BME280_temperature;BME280_humidity;BME280_pressure;Samples;Min_cycle;Max_cycle;Signal;HPM_P1;HPM_P2
2022/09/13 00:01:15;;;;;;;4.50;3.58;;;;;;;17.94;70.23;98253.09;4935357;28;103887;-61
2022/09/13 00:03:43;;;;;;;4.10;3.57;;;;;;;17.76;71.48;98244.41;4932269;28;103270;-61
2022/09/13 00:06:13;;;;;;;4.50;3.55;;;;;;;17.66;72.38;98257.09;4936416;28;103369;-61
2022/09/13 00:08:42;;;;;;;4.68;3.17;;;;;;;17.67;72.40;98266.78;4951348;28;102725;-61
2022/09/13 00:11:16;;;;;;;4.77;3.37;;;;;;;17.83;71.93;98261.44;4936748;28;102844;-61
2022/09/13 00:13:44;;;;;;;6.25;3.63;;;;;;;17.66;72.15;98267.75;4933242;28;103393;-61
2022/09/13 00:16:13;;;;;;;4.37;3.40;;;;;;;17.84;71.53;98252.44;4929510;28;103562;-61
2022/09/13 00:18:45;;;;;;;2.90;2.63;;;;;;;17.99;70.55;98243.75;4932556;28;102979;-61
2022/09/13 00:21:16;;;;;;;2.70;2.50;;;;;;;18.07;69.87;98241.91;4933565;28;103161;-61
2022/09/13 00:23:44;;;;;;;3.63;2.90;;;;;;;18.09;69.93;98233.69;4932729;28;104467;-61
2022/09/13 00:26:14;;;;;;;3.17;2.67;;;;;;;18.08;70.12;98242.75;4934612;28;103056;-67
2022/09/13 00:28:44;;;;;;;3.30;2.90;;;;;;;18.06;70.01;98239.38;4935077;28;102615;-68
2022/09/13 00:31:12;;;;;;;4.20;3.57;;;;;;;17.80;71.32;98227.03;4933808;28;102976;-61
2022/09/13 00:33:40;;;;;;;3.00;2.70;;;;;;;17.89;71.06;98234.06;4936083;28;103108;-67
2022/09/13 00:36:14;;;;;;;3.20;2.90;;;;;;;17.94;70.80;98241.56;4935126;28;103238;-61
2022/09/13 00:38:42;;;;;;;4.30;3.05;;;;;;;17.91;71.01;98242.72;4934955;28;102779;-67
2022/09/13 00:41:16;;;;;;;3.78;3.47;;;;;;;17.78;71.37;98236.22;4935317;28;102727;-68
2022/09/13 00:43:46;;;;;;;4.20;3.70;;;;;;;17.60;72.42;98241.72;4935281;28;103346;-67
2022/09/13 00:46:23;;;;;;;4.03;3.67;;;;;;;17.27;74.26;98245.31;4933555;28;103265;-67
2022/09/13 00:48:55;;;;;;;5.03;4.10;;;;;;;16.55;77.11;98238.72;4930776;28;104074;-68
2022/09/13 00:51:25;;;;;;;4.40;4.00;;;;;;;16.57;77.06;98241.22;4935737;28;103067;-68
2022/09/13 00:53:58;;;;;;;4.07;3.22;;;;;;;17.12;74.97;98233.59;4931072;28;103334;-67
2022/09/13 00:56:31;;;;;;;3.57;3.10;;;;;;;17.38;73.47;98228.97;4932596;28;103083;-67
2022/09/13 00:59:02;;;;;;;3.15;2.83;;;;;;;17.52;72.36;98225.66;4934211;28;102878;-67
2022/09/13 01:01:36;;;;;;;3.92;3.28;;;;;;;17.59;72.01;98217.84;4930105;28;104487;-67
2022/09/13 01:04:04;;;;;;;2.97;2.67;;;;;;;17.62;71.46;98215.69;4935142;28;103510;-67
2022/09/13 01:06:41;;;;;;;3.08;2.88;;;;;;;17.68;70.97;98219.53;4935563;28;103216;-67
2022/09/13 01:09:12;;;;;;;3.70;3.00;;;;;;;17.70;70.99;98207.69;4937765;28;103146;-67
2022/09/13 01:11:46;;;;;;;3.55;3.10;;;;;;;17.71;71.19;98209.31;4933617;28;102684;-68
2022/09/13 01:14:14;;;;;;;4.10;3.70;;;;;;;17.59;71.08;98215.19;4934549;28;104524;-68
2022/09/13 01:16:42;;;;;;;4.60;3.40;;;;;;;17.64;71.56;98211.00;4934265;28;103602;-67
2022/09/13 01:19:14;;;;;;;4.43;4.03;;;;;;;17.69;71.25;98215.84;4933801;28;102954;-67
2022/09/13 01:22:12;;;;;;;5.07;4.57;;;;;;;17.36;73.14;98214.97;4933934;28;102730;-67
2022/09/13 01:25:08;;;;;;;5.00;4.32;;;;;;;17.45;72.63;98227.31;4933334;28;103708;-67
2022/09/13 01:27:45;;;;;;;4.00;3.60;;;;;;;17.56;72.07;98219.03;4933645;28;103339;-67
2022/09/13 01:30:17;;;;;;;4.13;3.72;;;;;;;17.44;72.43;98222.97;4935287;28;102775;-67
2022/09/13 01:33:12;;;;;;;4.95;3.50;;;;;;;17.56;71.94;98218.19;4937230;28;103085;-67
2022/09/13 01:35:54;;;;;;;3.90;3.50;;;;;;;17.65;71.76;98217.19;4933663;28;103295;-67
2022/09/13 01:38:40;;;;;;;3.40;3.10;;;;;;;17.65;71.63;98207.34;4931659;28;104124;-68
2022/09/13 01:41:24;;;;;;;5.30;4.38;;;;;;;17.57;71.64;98212.66;4936001;28;102712;-67
2022/09/13 01:43:59;;;;;;;3.73;3.17;;;;;;;17.65;71.25;98220.72;4937695;28;102774;-67
2022/09/13 01:46:32;;;;;;;6.13;4.53;;;;;;;17.57;72.02;98212.66;4934333;28;104118;-67
2022/09/13 01:49:07;;;;;;;4.85;3.15;;;;;;;17.67;71.61;98208.00;4936587;28;103293;-60
2022/09/13 01:51:43;;;;;;;4.88;3.42;;;;;;;17.74;71.49;98208.19;4936934;28;102785;-60
2022/09/13 01:54:17;;;;;;;3.92;3.60;;;;;;;17.64;71.31;98211.00;4939081;28;103861;-60
2022/09/13 01:56:54;;;;;;;3.63;3.30;;;;;;;17.68;71.48;98215.03;4936619;28;103314;-61
2022/09/13 01:59:26;;;;;;;3.80;3.40;;;;;;;17.67;71.07;98217.84;4932294;28;103892;-61
2022/09/13 02:02:02;;;;;;;4.10;3.38;;;;;;;17.73;71.05;98223.38;4933475;28;102829;-61
2022/09/13 02:04:37;;;;;;;2.60;2.40;;;;;;;17.73;70.80;98215.34;4938333;28;102836;-61
2022/09/13 02:07:11;;;;;;;3.67;3.08;;;;;;;17.71;70.25;98219.22;4934508;28;103834;-61
2022/09/13 02:09:43;;;;;;;3.65;3.35;;;;;;;17.61;71.58;98216.69;4938177;28;103376;-61
2022/09/13 02:12:15;;;;;;;3.53;3.22;;;;;;;17.62;71.46;98215.69;4937194;28;102743;-67
2022/09/13 02:14:46;;;;;;;3.50;3.20;;;;;;;17.65;71.44;98217.19;4934368;28;102800;-67
2022/09/13 02:17:20;;;;;;;3.92;3.53;;;;;;;17.48;72.20;98213.66;4937290;28;103307;-61
2022/09/13 02:19:52;;;;;;;3.25;2.90;;;;;;;17.58;71.66;98214.34;4937163;28;103442;-61
2022/09/13 02:22:26;;;;;;;4.22;3.83;;;;;;;17.54;71.91;98221.03;4938339;28;102736;-61
2022/09/13 02:24:57;;;;;;;3.05;2.75;;;;;;;17.63;71.56;98232.53;4938297;28;102694;-61
2022/09/13 02:27:32;;;;;;;3.38;3.08;;;;;;;17.65;71.28;98228.72;4938515;28;103292;-61
2022/09/13 02:30:04;;;;;;;2.92;2.63;;;;;;;17.66;70.64;98227.69;4934190;28;103449;-61
2022/09/13 02:32:37;;;;;;;3.00;2.78;;;;;;;17.68;70.71;98219.53;4951882;28;103052;-61
2022/09/13 02:35:12;;;;;;;2.72;2.53;;;;;;;17.63;70.70;98214.69;4934616;28;104051;-61
2022/09/13 02:37:42;;;;;;;3.22;2.92;;;;;;;17.66;70.70;98211.66;4935895;28;104288;-61
2022/09/13 02:40:21;;;;;;;2.78;2.55;;;;;;;17.66;71.11;98222.34;4937280;28;102997;-61
2022/09/13 02:42:54;;;;;;;3.42;3.13;;;;;;;17.51;71.50;98218.66;4939029;28;102782;-61
2022/09/13 02:45:29;;;;;;;3.20;2.60;;;;;;;17.58;71.52;98230.38;4935111;28;104367;-61
2022/09/13 02:48:04;;;;;;;3.47;3.17;;;;;;;17.55;71.51;98222.69;4939250;28;103028;-61
2022/09/13 02:50:47;;;;;;;2.73;2.53;;;;;;;17.54;71.28;98217.53;4937379;28;103246;-61
2022/09/13 02:53:22;;;;;;;2.90;2.60;;;;;;;17.49;71.16;98217.97;4947043;28;102870;-61
2022/09/13 02:55:55;;;;;;;3.50;3.20;;;;;;;17.51;71.28;98207.97;4949966;28;102812;-61
2022/09/13 02:58:30;;;;;;;3.22;2.45;;;;;;;17.50;71.31;98213.47;4948491;28;103981;-61
2022/09/13 03:00:58;;;;;;;3.07;2.53;;;;;;;17.44;71.88;98206.97;4934646;28;103600;-61
2022/09/13 03:03:28;;;;;;;2.50;2.30;;;;;;;17.50;71.43;98219.66;4934240;28;102751;-61
2022/09/13 03:05:55;;;;;;;2.25;2.10;;;;;;;17.55;71.38;98219.16;4937469;28;104385;-61
2022/09/13 03:08:24;;;;;;;2.58;2.28;;;;;;;17.50;71.02;98227.66;4936634;28;104580;-60
2022/09/13 03:11:02;;;;;;;3.83;2.60;;;;;;;17.30;71.70;98215.63;4935825;28;103329;-67
2022/09/13 03:13:40;;;;;;;3.70;2.95;;;;;;;16.96;73.32;98206.84;4933925;28;102791;-67
2022/09/13 03:16:24;;;;;;;3.27;2.50;;;;;;;16.94;74.16;98203.53;4950997;28;104356;-67
2022/09/13 03:19:06;;;;;;;3.13;2.70;;;;;;;17.01;73.99;98196.56;4934476;28;103288;-67
2022/09/13 03:21:50;;;;;;;3.28;2.97;;;;;;;17.04;74.01;98191.72;4935683;28;103229;-61
2022/09/13 03:24:24;;;;;;;3.05;2.75;;;;;;;17.12;73.44;98194.38;4947336;28;102852;-61
2022/09/13 03:27:06;;;;;;;3.33;2.67;;;;;;;17.31;72.83;98190.59;4936925;28;102762;-61
2022/09/13 03:29:43;;;;;;;4.63;3.10;;;;;;;16.94;74.24;98191.03;4933551;28;105000;-61
2022/09/13 03:32:29;;;;;;;3.13;2.67;;;;;;;17.08;73.91;98185.06;4948938;28;103390;-61
2022/09/13 03:35:07;;;;;;;3.90;3.20;;;;;;;17.12;74.16;98185.56;4937534;28;102986;-61
2022/09/13 03:37:45;;;;;;;4.15;3.28;;;;;;;17.14;74.13;98194.25;4933206;28;102774;-61
2022/09/13 03:40:16;;;;;;;3.30;3.00;;;;;;;17.23;74.29;98210.13;4932215;28;103535;-67
2022/09/13 03:42:52;;;;;;;5.93;3.10;;;;;;;17.19;74.12;98213.25;4933747;28;103242;-67
2022/09/13 03:45:23;;;;;;;4.93;3.80;;;;;;;16.75;75.79;98220.66;4935083;28;102745;-67
2022/09/13 03:47:54;;;;;;;5.57;4.32;;;;;;;16.88;75.51;98201.50;4933437;28;102657;-67
2022/09/13 03:50:26;;;;;;;5.68;3.70;;;;;;;16.73;76.16;98207.44;4933469;28;103399;-67
2022/09/13 03:53:00;;;;;;;3.90;3.50;;;;;;;16.84;75.57;98193.00;4928777;28;103285;-67
2022/09/13 03:55:28;;;;;;;3.30;2.50;;;;;;;17.05;74.25;98195.22;4935709;28;102781;-67
2022/09/13 03:57:56;;;;;;;3.53;2.90;;;;;;;17.14;73.89;98189.75;4937118;28;103110;-67
2022/09/13 04:00:25;;;;;;;5.38;4.00;;;;;;;16.93;74.63;98196.50;4933565;28;104131;-68
2022/09/13 04:02:54;;;;;;;3.78;3.10;;;;;;;16.99;74.12;98179.84;4933190;28;103251;-67
2022/09/13 04:05:22;;;;;;;4.20;3.57;;;;;;;17.06;74.41;98176.38;4935222;28;102782;-67
2022/09/13 04:07:53;;;;;;;4.60;4.03;;;;;;;17.13;74.07;98181.88;4936917;28;102828;-67
2022/09/13 04:10:23;;;;;;;5.43;3.50;;;;;;;16.99;74.48;98185.19;4931473;28;104600;-67
2022/09/13 04:12:51;;;;;;;4.45;4.05;;;;;;;16.24;78.44;98182.38;4928736;28;103318;-66
2022/09/13 04:15:19;;;;;;;4.18;3.78;;;;;;;16.67;76.47;98186.75;4928895;28;103264;-67
2022/09/13 04:17:47;;;;;;;6.10;4.40;;;;;;;16.77;75.48;98176.81;4936372;28;102806;-67
2022/09/13 04:20:14;;;;;;;4.03;3.60;;;;;;;16.68;76.91;98180.44;4946188;28;104267;-66
2022/09/13 04:22:42;;;;;;;3.97;3.53;;;;;;;16.83;75.74;98174.47;4932692;28;103539;-67
2022/09/13 04:25:11;;;;;;;3.45;3.15;;;;;;;16.90;75.23;98178.19;4933873;28;102756;-66
2022/09/13 04:27:41;;;;;;;3.37;2.97;;;;;;;16.92;74.88;98179.69;4936856;28;103361;-66
2022/09/13 04:30:11;;;;;;;3.55;3.03;;;;;;;16.99;74.66;98182.53;4933249;28;104256;-66
2022/09/13 04:32:39;;;;;;;4.03;3.53;;;;;;;16.94;75.07;98190.19;4932732;28;103430;-67
2022/09/13 04:35:08;;;;;;;6.70;5.37;;;;;;;16.11;78.72;98197.13;4932544;28;102724;-66
2022/09/13 04:37:36;;;;;;;6.97;4.90;;;;;;;15.73;81.28;98208.16;4934342;28;103810;-67
2022/09/13 04:40:05;;;;;;;4.60;4.20;;;;;;;16.17;79.55;98212.47;4966066;28;103424;-66
2022/09/13 04:42:34;;;;;;;4.22;3.47;;;;;;;16.47;78.32;98222.66;4935606;28;103314;-60
2022/09/13 04:45:02;;;;;;;5.57;4.10;;;;;;;16.45;77.59;98221.16;4932970;28;103601;-61
2022/09/13 04:47:30;;;;;;;3.27;2.97;;;;;;;16.66;77.34;98222.44;4943950;28;103223;-60
2022/09/13 04:50:00;;;;;;;5.28;3.97;;;;;;;16.47;77.78;98206.66;4948223;28;104833;-60
2022/09/13 04:52:28;;;;;;;4.73;4.07;;;;;;;16.07;80.17;98203.75;4934077;28;104294;-61
2022/09/13 04:54:59;;;;;;;4.53;3.80;;;;;;;16.07;80.38;98219.75;4928126;28;102860;-61
2022/09/13 04:57:27;;;;;;;3.53;3.22;;;;;;;16.43;78.86;98215.97;4932075;28;102769;-60
2022/09/13 04:59:56;;;;;;;3.10;2.78;;;;;;;16.74;76.93;98214.47;4934309;28;104541;-60
2022/09/13 05:02:24;;;;;;;3.67;3.38;;;;;;;16.88;76.23;98220.19;4929232;28;103320;-61
2022/09/13 05:04:52;;;;;;;3.65;3.35;;;;;;;16.91;76.05;98235.88;4933635;28;102744;-60
2022/09/13 05:07:20;;;;;;;3.57;2.90;;;;;;;16.94;75.62;98236.38;4935212;28;104510;-60
2022/09/13 05:09:49;;;;;;;4.85;3.30;;;;;;;16.73;75.99;98239.47;4934087;28;104565;-60
2022/09/13 05:12:17;;;;;;;2.30;2.10;;;;;;;16.94;75.33;98235.53;4933282;28;103205;-60
2022/09/13 05:14:45;;;;;;;2.67;2.40;;;;;;;17.04;74.67;98234.41;4938672;28;102848;-60
2022/09/13 05:17:16;;;;;;;2.50;2.30;;;;;;;17.17;74.36;98239.28;4938787;28;104916;-60
2022/09/13 05:19:44;;;;;;;3.50;2.40;;;;;;;17.17;74.31;98236.63;4943305;28;103660;-60
2022/09/13 05:22:12;;;;;;;3.72;3.17;;;;;;;17.07;74.60;98239.41;4940089;28;103322;-60
2022/09/13 05:24:40;;;;;;;2.40;2.20;;;;;;;17.21;74.11;98245.94;4935679;28;102862;-60
2022/09/13 05:27:08;;;;;;;3.00;2.70;;;;;;;17.30;73.47;98245.81;4934745;28;102798;-61
2022/09/13 05:29:38;;;;;;;3.20;2.72;;;;;;;17.34;73.73;98241.00;4937443;28;104481;-60
2022/09/13 05:32:06;;;;;;;2.85;2.50;;;;;;;17.34;73.49;98236.50;4937192;28;103231;-60
2022/09/13 05:34:35;;;;;;;2.85;2.20;;;;;;;17.31;74.15;98239.50;4947055;28;102979;-60
2022/09/13 05:37:03;;;;;;;3.08;2.55;;;;;;;17.36;74.11;98257.69;4938114;28;102908;-60
2022/09/13 05:39:31;;;;;;;3.15;2.85;;;;;;;17.35;74.05;98262.19;4939262;28;103199;-60
2022/09/13 05:42:19;;;;;;;2.60;2.40;;;;;;;17.40;73.67;98269.72;4937784;28;103590;-60
2022/09/13 05:44:47;;;;;;;2.60;2.40;;;;;;;17.48;73.78;98271.56;4938261;28;102776;-60
2022/09/13 05:47:15;;;;;;;3.60;2.85;;;;;;;17.41;73.64;98260.69;4939054;28;103268;-60
2022/09/13 05:49:44;;;;;;;2.60;2.40;;;;;;;17.45;74.35;98256.69;4949287;28;103790;-60
2022/09/13 05:52:32;;;;;;;2.60;2.40;;;;;;;17.50;73.96;98251.69;4939037;28;103573;-61
2022/09/13 05:55:00;;;;;;;3.30;2.55;;;;;;;17.54;73.85;98250.41;4939687;28;103825;-60
2022/09/13 05:57:28;;;;;;;3.00;2.80;;;;;;;17.52;73.83;98244.34;4937196;28;102747;-60
2022/09/13 05:59:55;;;;;;;3.53;2.77;;;;;;;17.58;73.44;98246.41;4933992;28;103485;-60
2022/09/13 06:02:23;;;;;;;4.43;3.25;;;;;;;17.59;73.78;98241.91;4938733;28;103287;-60
2022/09/13 06:04:53;;;;;;;5.00;3.15;;;;;;;17.54;74.08;98250.41;4939469;28;102761;-61
2022/09/13 06:07:20;;;;;;;3.53;2.55;;;;;;;17.74;73.13;98251.75;4947760;28;102935;-60
2022/09/13 06:09:48;;;;;;;4.70;3.38;;;;;;;17.73;73.08;98254.59;4937171;28;103318;-60
2022/09/13 06:12:16;;;;;;;3.88;2.95;;;;;;;17.65;73.73;98258.09;4940938;28;103284;-60
2022/09/13 06:14:44;;;;;;;3.50;3.05;;;;;;;17.74;73.74;98259.75;4938290;28;103373;-61
2022/09/13 06:17:11;;;;;;;2.70;2.50;;;;;;;17.99;72.77;98265.13;4938084;28;103343;-61
2022/09/13 06:19:39;;;;;;;4.23;3.23;;;;;;;18.06;72.56;98268.78;4937755;28;103549;-60
2022/09/13 06:22:08;;;;;;;3.42;2.70;;;;;;;18.12;71.95;98271.63;4939379;28;103249;-60
2022/09/13 06:24:37;;;;;;;3.90;2.70;;;;;;;18.23;71.61;98273.09;4939302;28;102674;-60
2022/09/13 06:27:05;;;;;;;2.40;2.20;;;;;;;18.28;71.30;98276.09;4935712;28;103009;-60
2022/09/13 06:29:32;;;;;;;2.93;2.30;;;;;;;18.33;71.22;98268.44;4955031;28;103481;-60
2022/09/13 06:32:00;;;;;;;3.10;2.22;;;;;;;18.35;71.13;98263.75;4940238;28;103217;-61
2022/09/13 06:34:28;;;;;;;3.10;2.60;;;;;;;18.30;71.71;98266.09;4954321;28;102749;-60
2022/09/13 06:36:58;;;;;;;3.00;2.70;;;;;;;18.36;71.27;98262.72;4935898;28;103661;-61
2022/09/13 06:39:27;;;;;;;4.88;2.90;;;;;;;18.39;71.60;98262.38;4938040;28;105081;-61
2022/09/13 06:41:55;;;;;;;3.13;2.50;;;;;;;18.33;72.16;98257.75;4938857;28;103055;-60
2022/09/13 06:44:38;;;;;;;3.67;2.87;;;;;;;18.47;71.27;98255.19;4945646;28;102893;-61
2022/09/13 06:47:06;;;;;;;5.25;3.22;;;;;;;18.43;71.56;98255.69;4938217;28;102828;-66
2022/09/13 06:49:36;;;;;;;3.65;3.28;;;;;;;18.41;72.04;98249.69;4935011;28;103304;-66
2022/09/13 06:52:04;;;;;;;3.92;3.13;;;;;;;18.25;72.41;98261.25;4938992;28;103286;-66
2022/09/13 06:54:33;;;;;;;3.35;2.70;;;;;;;18.65;70.53;98260.34;4935869;28;102677;-66
2022/09/13 06:57:02;;;;;;;6.15;4.10;;;;;;;18.53;71.59;98248.34;4939496;28;102735;-66
2022/09/13 06:59:29;;;;;;;5.75;4.07;;;;;;;18.52;71.30;98249.38;4937618;28;103443;-66
2022/09/13 07:02:00;;;;;;;6.95;4.03;;;;;;;18.36;72.29;98249.34;4935714;28;103272;-66
2022/09/13 07:04:30;;;;;;;5.32;4.03;;;;;;;18.38;72.06;98247.34;4937117;28;102783;-66
2022/09/13 07:06:59;;;;;;;6.55;4.15;;;;;;;18.50;72.27;98246.00;4947571;28;103991;-66
2022/09/13 07:09:27;;;;;;;6.97;4.00;;;;;;;18.67;71.43;98239.59;4936382;28;104193;-67
2022/09/13 07:11:56;;;;;;;6.03;4.05;;;;;;;18.87;71.35;98230.16;4936218;28;104083;-66
2022/09/13 07:14:26;;;;;;;5.60;3.80;;;;;;;18.80;71.76;98239.91;4938359;28;102818;-66
2022/09/13 07:16:54;;;;;;;4.67;3.10;;;;;;;19.24;70.03;98250.06;4936663;28;104217;-66
2022/09/13 07:19:25;;;;;;;4.65;3.88;;;;;;;19.40;69.59;98242.78;4939243;28;104249;-67
2022/09/13 07:21:54;;;;;;;5.00;3.22;;;;;;;19.65;68.70;98246.13;4933875;28;103289;-66
2022/09/13 07:24:22;;;;;;;5.43;3.50;;;;;;;19.47;69.12;98226.84;4954347;28;102812;-66
2022/09/13 07:26:50;;;;;;;4.15;3.63;;;;;;;19.31;69.35;98221.56;4939558;28;102709;-66
2022/09/13 07:29:23;;;;;;;5.57;3.72;;;;;;;19.33;69.19;98219.53;4938865;28;103294;-66
2022/09/13 07:31:53;;;;;;;5.03;3.55;;;;;;;19.58;68.73;98218.41;4938099;28;103483;-66
2022/09/13 07:34:22;;;;;;;5.47;3.50;;;;;;;20.06;67.67;98222.50;4936506;28;103126;-67
2022/09/13 07:36:51;;;;;;;6.43;4.00;;;;;;;19.97;66.86;98229.78;4936783;28;102708;-67
2022/09/13 07:39:19;;;;;;;3.65;3.25;;;;;;;20.13;66.43;98232.31;4938102;28;104171;-67
2022/09/13 07:41:50;;;;;;;4.83;3.37;;;;;;;20.42;65.95;98225.38;4936677;28;103273;-66
2022/09/13 07:44:18;;;;;;;5.30;3.20;;;;;;;20.89;63.85;98231.19;4937157;28;103129;-66
2022/09/13 07:46:47;;;;;;;4.53;3.60;;;;;;;21.34;63.72;98230.94;4937258;28;103959;-67
2022/09/13 07:49:17;;;;;;;3.70;2.85;;;;;;;21.80;61.54;98238.66;4951859;28;103516;-67
2022/09/13 07:51:49;;;;;;;4.97;3.23;;;;;;;21.98;61.22;98247.09;4935125;28;103255;-67
2022/09/13 07:54:19;;;;;;;8.57;3.60;;;;;;;21.71;62.86;98242.47;4938885;28;103757;-67
2022/09/13 07:56:48;;;;;;;4.97;3.25;;;;;;;21.60;61.75;98237.63;4934795;28;103228;-68
2022/09/13 07:59:18;;;;;;;7.10;3.58;;;;;;;21.50;62.76;98234.41;4936018;28;103931;-67
2022/09/13 08:01:48;;;;;;;5.47;3.10;;;;;;;21.58;62.34;98232.44;4936683;28;103179;-67
2022/09/13 08:04:18;;;;;;;3.75;3.05;;;;;;;21.97;61.87;98225.78;4937261;28;103001;-67
2022/09/13 08:06:47;;;;;;;6.40;3.38;;;;;;;22.31;60.92;98226.69;4936018;28;102773;-67
2022/09/13 08:09:15;;;;;;;4.68;3.15;;;;;;;22.47;60.27;98229.09;4934401;28;103451;-67
2022/09/13 08:11:45;;;;;;;4.40;3.50;;;;;;;22.15;60.38;98221.59;4936069;28;103292;-67
2022/09/13 08:14:15;;;;;;;4.97;3.20;;;;;;;22.15;60.97;98221.59;4938035;28;102757;-67
2022/09/13 08:16:43;;;;;;;7.27;3.30;;;;;;;22.19;61.21;98222.88;4933352;28;102987;-67
2022/09/13 08:19:14;;;;;;;4.40;3.10;;;;;;;22.44;60.06;98213.31;4950617;28;104677;-67
2022/09/13 08:21:42;;;;;;;4.47;3.42;;;;;;;22.43;59.88;98211.66;4937200;28;103464;-67
2022/09/13 08:24:14;;;;;;;5.10;3.10;;;;;;;22.91;59.42;98203.66;4935811;28;102907;-67
2022/09/13 08:26:42;;;;;;;5.18;3.28;;;;;;;22.70;58.91;98198.38;4936532;28;103114;-65
2022/09/13 08:29:12;;;;;;;5.63;3.05;;;;;;;22.86;58.64;98211.50;4937025;28;103266;-67
2022/09/13 08:31:40;;;;;;;4.10;2.60;;;;;;;23.26;58.00;98212.50;4936906;28;103017;-67
2022/09/13 08:34:13;;;;;;;4.88;2.90;;;;;;;23.25;58.38;98211.66;4936042;28;102792;-67
2022/09/13 08:36:41;;;;;;;5.15;3.00;;;;;;;23.22;58.02;98211.22;4937172;28;103797;-61
2022/09/13 08:39:11;;;;;;;4.40;2.80;;;;;;;24.03;57.32;98207.44;4934801;28;103453;-61
2022/09/13 08:42:15;;;;;;;3.10;2.80;;;;;;;23.89;56.96;98203.13;4935523;28;103465;-61
2022/09/13 08:44:47;;;;;;;5.82;2.75;;;;;;;24.23;55.49;98194.81;4933677;28;103053;-62
2022/09/13 08:47:30;;;;;;;5.60;2.95;;;;;;;23.97;55.69;98201.03;4936785;28;103073;-62
2022/09/13 08:50:07;;;;;;;4.57;2.70;;;;;;;24.52;55.98;98205.16;4931120;28;103327;-61
2022/09/13 08:52:44;;;;;;;3.70;2.60;;;;;;;25.21;55.21;98199.13;4934597;28;103568;-61
2022/09/13 08:55:23;;;;;;;7.43;3.00;;;;;;;24.57;54.04;98201.81;4934928;28;102895;-68
2022/09/13 08:58:02;;;;;;;3.35;2.50;;;;;;;24.62;54.05;98205.53;4935932;28;103286;-68
2022/09/13 09:00:35;;;;;;;2.88;2.00;;;;;;;25.43;54.54;98202.34;4937002;28;104039;-61
2022/09/13 09:03:16;;;;;;;5.13;2.50;;;;;;;25.32;53.48;98198.44;4934445;28;103392;-61
2022/09/13 09:05:47;;;;;;;4.65;2.63;;;;;;;25.91;52.66;98198.91;4936841;28;103324;-68
2022/09/13 09:08:30;;;;;;;3.28;2.13;;;;;;;25.70;53.45;98199.28;4935923;28;102904;-67
2022/09/13 09:11:01;;;;;;;5.47;2.78;;;;;;;25.39;51.67;98191.13;4934120;28;104523;-62
2022/09/13 09:13:32;;;;;;;4.75;2.40;;;;;;;25.48;51.38;98189.88;4937154;28;103778;-61
2022/09/13 09:16:05;;;;;;;5.60;2.20;;;;;;;25.42;51.88;98179.88;4934272;28;102700;-67
2022/09/13 09:18:39;;;;;;;5.70;2.30;;;;;;;25.32;51.54;98190.31;4933536;28;102705;-68
2022/09/13 09:21:15;;;;;;;3.97;2.25;;;;;;;25.50;51.17;98185.06;4937230;28;103252;-68
2022/09/13 09:23:51;;;;;;;2.50;2.10;;;;;;;25.78;50.69;98196.31;4936563;28;103324;-68
2022/09/13 09:26:21;;;;;;;3.58;1.88;;;;;;;25.78;49.82;98207.13;4944167;28;102762;-68
2022/09/13 09:28:51;;;;;;;3.30;1.80;;;;;;;26.22;49.79;98202.63;4936497;28;102786;-66
2022/09/13 09:31:31;;;;;;;1.80;1.70;;;;;;;26.42;49.08;98208.69;4936255;28;104376;-66
2022/09/13 09:34:14;;;;;;;3.57;1.60;;;;;;;26.66;49.59;98199.72;4935097;28;103218;-66
2022/09/13 09:36:48;;;;;;;3.42;1.75;;;;;;;26.37;49.25;98195.00;4952535;28;103049;-66
2022/09/13 09:39:16;;;;;;;2.75;1.70;;;;;;;26.49;49.85;98190.53;4934776;28;102913;-66
2022/09/13 09:41:45;;;;;;;3.85;1.85;;;;;;;26.52;50.26;98181.94;4936729;28;103130;-60
2022/09/13 09:44:21;;;;;;;2.80;1.73;;;;;;;27.01;48.08;98181.81;4935786;28;103877;-60
2022/09/13 09:46:54;;;;;;;4.13;1.73;;;;;;;26.62;49.55;98187.66;4938971;28;102705;-60
2022/09/13 09:52:27;;;;;;;3.95;1.70;;;;;;;26.80;48.78;98185.00;4934599;28;104101;-60
2022/09/13 09:55:00;;;;;;;4.57;1.63;;;;;;;26.68;47.65;98181.34;4928171;28;103054;-67
2022/09/13 09:57:49;;;;;;;3.00;1.67;;;;;;;25.45;50.28;98198.38;4933414;28;103020;-66
2022/09/13 10:00:19;;;;;;;2.60;1.50;;;;;;;25.62;49.15;98199.56;4949395;28;102874;-67
2022/09/13 10:02:49;;;;;;;3.27;1.60;;;;;;;26.50;49.81;98206.53;4938547;28;104582;-67
2022/09/13 10:05:19;;;;;;;1.75;1.40;;;;;;;26.77;48.42;98207.09;4938176;28;103554;-67
2022/09/13 10:07:56;;;;;;;1.20;1.10;;;;;;;27.00;48.60;98206.44;4939910;28;102881;-67
2022/09/13 10:10:35;;;;;;;4.15;1.63;;;;;;;27.28;46.95;98197.75;4940005;28;102912;-67
2022/09/13 10:13:04;;;;;;;1.50;1.30;;;;;;;27.66;45.94;98201.00;4937780;28;104677;-67
2022/09/13 10:15:34;;;;;;;2.63;1.25;;;;;;;27.83;47.60;98196.56;4937298;28;103464;-61
2022/09/13 10:18:15;;;;;;;2.28;1.60;;;;;;;27.41;45.75;98195.72;4940490;28;102867;-62
2022/09/13 10:21:06;;;;;;;1.93;1.50;;;;;;;28.17;45.05;98192.28;4936646;28;104036;-61
2022/09/13 10:23:40;;;;;;;2.60;1.60;;;;;;;28.46;44.04;98191.34;4938453;28;103057;-61
2022/09/13 10:26:12;;;;;;;4.40;1.60;;;;;;;27.86;46.02;98196.09;4940103;28;103257;-62
2022/09/13 10:28:46;;;;;;;2.70;1.58;;;;;;;28.30;46.06;98191.19;4940082;28;103169;-61
2022/09/13 10:31:17;;;;;;;2.58;1.60;;;;;;;27.75;45.49;98188.75;4941072;28;103149;-62
2022/09/13 10:33:56;;;;;;;2.80;1.40;;;;;;;28.50;45.73;98178.09;4936700;28;103272;-61
2022/09/13 10:36:30;;;;;;;2.80;1.65;;;;;;;27.85;44.22;98170.00;4940610;28;103025;-61
2022/09/13 10:39:21;;;;;;;3.70;1.40;;;;;;;28.60;44.77;98170.19;4954153;28;103146;-67
2022/09/13 10:41:52;;;;;;;2.92;1.50;;;;;;;29.13;44.11;98175.41;4937829;28;104030;-67
2022/09/13 10:44:30;;;;;;;1.55;1.13;;;;;;;29.69;40.80;98163.72;4941217;28;103297;-67
2022/09/13 10:47:01;;;;;;;2.27;1.20;;;;;;;29.17;41.59;98165.69;4968031;28;103400;-67
2022/09/13 10:49:37;;;;;;;2.35;1.20;;;;;;;29.24;40.13;98161.81;4950542;28;103171;-69
2022/09/13 10:52:24;;;;;;;1.30;1.13;;;;;;;29.47;40.42;98162.75;4936969;28;103632;-67
2022/09/13 10:54:54;;;;;;;1.17;1.08;;;;;;;29.41;41.15;98155.56;4936306;28;103552;-67
2022/09/13 10:57:33;;;;;;;2.08;1.30;;;;;;;28.42;40.09;98157.56;4948652;28;103292;-67
2022/09/13 11:00:01;;;;;;;2.30;1.10;;;;;;;29.06;40.12;98159.22;4925766;28;102759;-68
2022/09/13 11:02:49;;;;;;;1.38;0.90;;;;;;;29.92;39.65;98151.88;4933680;28;103202;-68
2022/09/13 11:05:22;;;;;;;1.10;0.82;;;;;;;30.58;37.23;98151.00;4936347;28;105518;-68
2022/09/13 11:08:25;;;;;;;1.02;0.75;;;;;;;29.98;36.94;98154.41;4936786;28;103300;-68
2022/09/13 11:11:07;;;;;;;1.05;0.90;;;;;;;29.64;36.49;98152.75;4937229;28;102744;-68
2022/09/13 11:13:46;;;;;;;1.07;0.87;;;;;;;30.13;36.56;98142.94;4966686;28;104010;-61
2022/09/13 11:16:32;;;;;;;1.42;0.85;;;;;;;30.08;37.24;98151.03;4928183;28;103299;-62
2022/09/13 11:19:21;;;;;;;1.77;0.93;;;;;;;30.27;36.70;98147.81;4935216;28;103177;-62
2022/09/13 11:22:04;;;;;;;1.60;0.82;;;;;;;30.80;36.67;98146.38;4936107;28;103223;-61
2022/09/13 11:24:50;;;;;;;2.10;0.90;;;;;;;31.21;37.59;98145.00;4936114;28;104274;-62
2022/09/13 11:27:29;;;;;;;1.43;1.00;;;;;;;31.23;36.38;98145.56;4947820;28;104173;-62
2022/09/13 11:30:12;;;;;;;1.30;0.90;;;;;;;30.86;36.94;98148.09;4950480;28;104523;-62
2022/09/13 11:33:05;;;;;;;1.25;1.00;;;;;;;30.67;37.07;98152.22;4967937;28;102680;-62
2022/09/13 11:35:56;;;;;;;1.67;0.90;;;;;;;30.55;34.67;98140.59;4960780;28;104462;-62
2022/09/13 11:38:41;;;;;;;2.90;1.00;;;;;;;29.51;36.93;98144.84;4933690;28;103992;-69
2022/09/13 11:41:20;;;;;;;1.50;0.80;;;;;;;28.52;36.99;98151.53;4934303;28;103233;-69
2022/09/13 11:44:02;;;;;;;0.80;0.77;;;;;;;29.60;37.12;98159.72;4937532;28;103060;-69
2022/09/13 11:46:39;;;;;;;2.63;0.90;;;;;;;29.91;36.89;98163.81;4936910;28;103069;-68
2022/09/13 11:49:27;;;;;;;2.07;1.10;;;;;;;28.88;38.67;98162.13;4935721;28;103359;-68
2022/09/13 11:52:08;;;;;;;4.40;1.10;;;;;;;30.09;36.27;98155.44;4964535;28;103301;-62
2022/09/13 11:54:59;;;;;;;2.50;0.95;;;;;;;30.04;37.08;98153.44;4963671;28;103160;-69